createdAt,value
2022-10-01T00:01:17.733Z,100257.72
2022-10-01T00:03:45.062Z,100259.38
2022-10-01T00:06:21.596Z,100254.88
2022-10-01T00:08:50.812Z,100247.03
2022-10-01T00:11:21.397Z,100251.28
2022-10-01T00:13:48.670Z,100246.50
2022-10-01T00:16:18.749Z,100245.41
2022-10-01T00:18:48.221Z,100241.72
2022-10-01T00:21:27.073Z,100251.75
2022-10-01T00:24:03.201Z,100255.25
2022-10-01T00:26:35.058Z,100259.97
2022-10-01T00:29:07.822Z,100267.13
2022-10-01T00:31:34.907Z,100262.44
2022-10-01T00:34:03.374Z,100245.22
2022-10-01T00:36:31.772Z,100236.38
2022-10-01T00:39:00.657Z,100228.00
2022-10-01T00:41:29.676Z,100223.47
2022-10-01T00:43:58.871Z,100216.47
2022-10-01T00:46:32.368Z,100211.97
2022-10-01T00:49:07.148Z,100215.19
2022-10-01T00:51:42.883Z,100211.69
2022-10-01T00:54:22.681Z,100213.56
2022-10-01T00:56:53.260Z,100214.38
2022-10-01T00:59:21.057Z,100217.50
2022-10-01T01:01:48.756Z,100207.00
2022-10-01T01:04:18.425Z,100208.84
2022-10-01T01:06:53.820Z,100219.16
2022-10-01T01:09:22.985Z,100221.44
2022-10-01T01:12:19.142Z,100215.28
2022-10-01T01:15:04.990Z,100220.00
2022-10-01T01:17:59.254Z,100222.66
2022-10-01T01:20:49.935Z,100215.47
2022-10-01T01:23:16.635Z,100230.50
2022-10-01T01:25:54.324Z,100235.63
2022-10-01T01:28:31.626Z,100219.44
2022-10-01T01:31:04.906Z,100222.38
2022-10-01T01:33:34.388Z,100243.38
2022-10-01T01:36:09.659Z,100240.69
2022-10-01T01:38:45.353Z,100231.28
2022-10-01T01:41:14.546Z,100226.75
2022-10-01T01:43:46.107Z,100221.88
2022-10-01T01:46:17.744Z,100229.53
2022-10-01T01:48:47.624Z,100219.03
2022-10-01T01:51:25.155Z,100224.38
2022-10-01T01:53:52.191Z,100219.22
2022-10-01T01:56:18.964Z,100211.81
2022-10-01T01:58:46.341Z,100213.50
2022-10-01T02:01:34.417Z,100209.53
2022-10-01T02:04:05.391Z,100212.22
2022-10-01T02:06:35.297Z,100226.56
2022-10-01T02:09:08.765Z,100228.63
2022-10-01T02:11:46.854Z,100236.44
2022-10-01T02:14:46.784Z,100224.94
2022-10-01T02:17:32.469Z,100235.63
2022-10-01T02:20:18.607Z,100242.59
2022-10-01T02:22:52.828Z,100238.47
2022-10-01T02:25:27.070Z,100235.97
2022-10-01T02:28:10.156Z,100239.50
2022-10-01T02:30:39.524Z,100240.50
2022-10-01T02:33:11.066Z,100240.13
2022-10-01T02:35:38.970Z,100243.44
2022-10-01T02:38:07.313Z,100244.00
2022-10-01T02:40:37.766Z,100244.66
2022-10-01T02:43:12.533Z,100234.53
2022-10-01T02:45:41.700Z,100240.97
2022-10-01T02:48:11.428Z,100253.66
2022-10-01T02:51:15.919Z,100244.00
2022-10-01T02:53:47.446Z,100236.16
2022-10-01T02:56:34.899Z,100212.97
2022-10-01T02:59:01.750Z,100223.28
2022-10-01T03:01:28.658Z,100235.78
2022-10-01T03:03:55.410Z,100232.56
2022-10-01T03:06:22.479Z,100241.59
2022-10-01T03:08:49.343Z,100245.94
2022-10-01T03:11:16.334Z,100246.94
2022-10-01T03:13:43.795Z,100244.28
2022-10-01T03:16:10.589Z,100253.56
2022-10-01T03:18:37.482Z,100256.25
2022-10-01T03:21:04.319Z,100260.56
2022-10-01T03:23:31.005Z,100258.72
2022-10-01T03:25:57.768Z,100239.00
2022-10-01T03:28:24.536Z,100249.50
2022-10-01T03:30:51.220Z,100248.03
2022-10-01T03:33:17.961Z,100248.03
2022-10-01T03:35:44.636Z,100264.06
2022-10-01T03:38:13.381Z,100266.47
2022-10-01T03:40:40.145Z,100271.16
2022-10-01T03:43:07.216Z,100272.19
2022-10-01T03:45:33.925Z,100272.38
2022-10-01T03:48:00.897Z,100263.72
2022-10-01T03:50:27.606Z,100265.34
2022-10-01T03:52:54.296Z,100260.22
2022-10-01T03:55:21.143Z,100270.50
2022-10-01T03:57:47.890Z,100262.06
2022-10-01T04:00:14.685Z,100255.81
2022-10-01T04:02:41.559Z,100258.81
2022-10-01T04:05:08.924Z,100257.38
2022-10-01T04:07:35.894Z,100250.38
2022-10-01T04:10:02.524Z,100246.88
2022-10-01T04:12:29.197Z,100242.56
2022-10-01T04:14:55.906Z,100251.94
2022-10-01T04:17:22.628Z,100249.09
2022-10-01T04:19:49.284Z,100236.94
2022-10-01T04:22:15.923Z,100248.81
2022-10-01T04:24:42.606Z,100249.66
2022-10-01T04:27:09.673Z,100244.94
2022-10-01T04:29:40.055Z,100245.59
2022-10-01T04:32:07.473Z,100245.59
2022-10-01T04:34:52.533Z,100259.59
2022-10-01T04:37:20.145Z,100256.63
2022-10-01T04:39:47.815Z,100252.56
2022-10-01T04:42:15.262Z,100250.94
2022-10-01T04:44:42.073Z,100257.47
2022-10-01T04:47:09.007Z,100259.97
2022-10-01T04:49:36.153Z,100256.28
2022-10-01T04:52:04.028Z,100250.09
2022-10-01T04:54:31.025Z,100245.94
2022-10-01T04:57:00.517Z,100240.34
2022-10-01T04:59:27.317Z,100248.00
2022-10-01T05:01:53.997Z,100243.19
2022-10-01T05:04:20.742Z,100246.84
2022-10-01T05:06:47.474Z,100248.69
2022-10-01T05:09:14.326Z,100239.66
2022-10-01T05:11:41.029Z,100241.31
2022-10-01T05:14:07.674Z,100245.50
2022-10-01T05:16:34.433Z,100256.00
2022-10-01T05:19:01.082Z,100263.00
2022-10-01T05:21:27.859Z,100257.28
2022-10-01T05:23:55.029Z,100262.91
2022-10-01T05:26:21.868Z,100260.06
2022-10-01T05:28:48.897Z,100262.16
2022-10-01T05:31:16.015Z,100249.00
2022-10-01T05:33:42.667Z,100247.78
2022-10-01T05:36:09.549Z,100260.50
2022-10-01T05:38:37.400Z,100254.34
2022-10-01T05:41:04.869Z,100253.50
2022-10-01T05:43:31.995Z,100254.53
2022-10-01T05:46:03.792Z,100256.91
2022-10-01T05:48:34.621Z,100254.25
2022-10-01T05:51:03.154Z,100262.25
2022-10-01T05:53:29.944Z,100254.78
2022-10-01T05:55:58.718Z,100251.66
2022-10-01T05:58:26.201Z,100267.50
2022-10-01T06:00:55.071Z,100265.66
2022-10-01T06:03:22.076Z,100267.50
2022-10-01T06:05:48.808Z,100263.16
2022-10-01T06:08:15.962Z,100266.03
2022-10-01T06:10:43.698Z,100263.34
2022-10-01T06:13:11.475Z,100259.97
2022-10-01T06:15:39.137Z,100259.56
2022-10-01T06:18:08.249Z,100254.03
2022-10-01T06:20:35.969Z,100251.19
2022-10-01T06:23:05.842Z,100252.00
2022-10-01T06:25:33.143Z,100255.34
2022-10-01T06:27:59.944Z,100258.81
2022-10-01T06:30:31.964Z,100254.94
2022-10-01T06:33:08.410Z,100251.28
2022-10-01T06:35:40.213Z,100250.72
2022-10-01T06:38:08.062Z,100243.34
2022-10-01T06:40:35.137Z,100245.88
2022-10-01T06:43:01.855Z,100235.47
2022-10-01T06:45:30.722Z,100242.75
2022-10-01T06:47:59.774Z,100241.50
2022-10-01T06:50:26.510Z,100241.34
2022-10-01T06:52:53.358Z,100247.13
2022-10-01T06:55:29.029Z,100253.56
2022-10-01T06:57:58.488Z,100250.28
2022-10-01T07:00:26.997Z,100256.25
2022-10-01T07:02:55.621Z,100249.50
2022-10-01T07:05:23.389Z,100242.75
2022-10-01T07:07:50.662Z,100239.50
2022-10-01T07:10:21.017Z,100225.78
2022-10-01T07:12:49.071Z,100237.75
2022-10-01T07:15:18.148Z,100240.03
2022-10-01T07:17:48.432Z,100243.31
2022-10-01T07:20:17.807Z,100247.72
2022-10-01T07:22:44.986Z,100240.78
2022-10-01T07:25:11.759Z,100248.88
2022-10-01T07:27:38.571Z,100245.16
2022-10-01T07:30:06.809Z,100237.59
2022-10-01T07:32:35.479Z,100241.56
2022-10-01T07:35:02.345Z,100246.53
2022-10-01T07:37:29.308Z,100232.72
2022-10-01T07:39:56.064Z,100239.25
2022-10-01T07:42:22.734Z,100245.25
2022-10-01T07:44:49.360Z,100243.75
2022-10-01T07:47:16.067Z,100244.59
2022-10-01T07:49:42.743Z,100255.56
2022-10-01T07:52:13.124Z,100253.72
2022-10-01T07:54:40.401Z,100262.97
2022-10-01T07:57:07.101Z,100252.25
2022-10-01T07:59:33.841Z,100247.53
2022-10-01T08:02:01.060Z,100246.91
2022-10-01T08:04:46.347Z,100251.69
2022-10-01T08:07:13.149Z,100239.56
2022-10-01T08:09:39.820Z,100234.28
2022-10-01T08:12:06.570Z,100224.84
2022-10-01T08:14:33.309Z,100231.91
2022-10-01T08:17:00.035Z,100215.06
2022-10-01T08:19:27.108Z,100212.41
2022-10-01T08:21:53.785Z,100211.63
2022-10-01T08:24:20.448Z,100219.09
2022-10-01T08:26:53.385Z,100220.59
2022-10-01T08:29:20.472Z,100222.47
2022-10-01T08:31:47.419Z,100226.91
2022-10-01T08:34:14.724Z,100226.09
2022-10-01T08:36:41.344Z,100220.34
2022-10-01T08:39:08.116Z,100228.59
2022-10-01T08:41:45.020Z,100222.03
2022-10-01T08:44:27.933Z,100213.53
2022-10-01T08:47:03.756Z,100235.63
2022-10-01T08:49:39.583Z,100236.88
2022-10-01T08:52:37.053Z,100233.94
2022-10-01T08:55:10.793Z,100230.03
2022-10-01T08:57:42.195Z,100226.13
2022-10-01T09:00:14.820Z,100216.31
2022-10-01T09:02:43.860Z,100228.97
2022-10-01T09:05:26.089Z,100220.50
2022-10-01T09:08:16.455Z,100230.22
2022-10-01T09:10:54.367Z,100225.91
2022-10-01T09:13:39.867Z,100231.06
2022-10-01T09:16:22.071Z,100223.22
2022-10-01T09:18:57.786Z,100220.13
2022-10-01T09:21:47.326Z,100217.63
2022-10-01T09:24:23.085Z,100215.53
2022-10-01T09:26:49.840Z,100215.94
2022-10-01T09:29:29.053Z,100226.31
2022-10-01T09:31:57.248Z,100222.81
2022-10-01T09:34:37.645Z,100225.91
2022-10-01T09:37:32.635Z,100214.97
2022-10-01T09:40:09.386Z,100220.31
2022-10-01T09:42:36.050Z,100214.78
2022-10-01T09:45:02.754Z,100214.97
2022-10-01T09:47:33.348Z,100207.94
2022-10-01T09:50:04.667Z,100204.25
2022-10-01T09:52:35.141Z,100197.00
2022-10-01T09:55:32.772Z,100199.50
2022-10-01T09:58:09.652Z,100191.19
2022-10-01T10:00:38.844Z,100186.88
2022-10-01T10:03:05.932Z,100190.41
2022-10-01T10:05:49.539Z,100178.44
2022-10-01T10:08:23.546Z,100179.63
2022-10-01T10:10:54.397Z,100174.06
2022-10-01T10:13:34.705Z,100169.31
2022-10-01T10:16:17.527Z,100158.97
2022-10-01T10:18:52.024Z,100152.19
2022-10-01T10:21:23.341Z,100165.81
2022-10-01T10:24:01.136Z,100160.63
2022-10-01T10:26:34.289Z,100151.13
2022-10-01T10:29:03.115Z,100151.16
2022-10-01T10:31:39.947Z,100139.00
2022-10-01T10:34:15.653Z,100128.25
2022-10-01T10:36:44.294Z,100124.94
2022-10-01T10:39:22.296Z,100126.16
2022-10-01T10:41:51.498Z,100123.88
2022-10-01T10:44:21.404Z,100115.00
2022-10-01T10:46:50.107Z,100115.28
2022-10-01T10:49:22.244Z,100108.59
2022-10-01T10:51:56.764Z,100105.63
2022-10-01T10:54:40.858Z,100114.63
2022-10-01T10:57:30.067Z,100113.56
2022-10-01T11:00:07.907Z,100111.34
2022-10-01T11:02:35.234Z,100105.72
2022-10-01T11:05:19.119Z,100104.38
2022-10-01T11:07:48.464Z,100097.91
2022-10-01T11:10:28.299Z,100088.41
2022-10-01T11:13:01.087Z,100088.22
2022-10-01T11:15:46.811Z,100084.50
2022-10-01T11:18:42.893Z,100093.69
2022-10-01T11:21:28.550Z,100086.94
2022-10-01T11:24:07.469Z,100086.72
2022-10-01T11:26:50.615Z,100084.41
2022-10-01T11:29:36.049Z,100080.44
2022-10-01T11:32:09.455Z,100077.13
2022-10-01T11:34:50.582Z,100070.78
2022-10-01T11:37:39.490Z,100066.91
2022-10-01T11:40:28.566Z,100068.91
2022-10-01T11:43:00.182Z,100066.09
2022-10-01T11:45:41.902Z,100060.34
2022-10-01T11:48:16.674Z,100062.22
2022-10-01T11:50:49.684Z,100047.81
2022-10-01T11:53:30.795Z,100050.25
2022-10-01T11:56:22.585Z,100052.94
2022-10-01T11:58:57.309Z,100052.47
2022-10-01T12:01:24.301Z,100048.03
2022-10-01T12:03:53.936Z,100045.94
2022-10-01T12:06:33.003Z,100046.34
2022-10-01T12:09:14.178Z,100033.34
2022-10-01T12:11:52.739Z,100021.47
2022-10-01T12:15:06.958Z,100039.56
2022-10-01T12:17:41.228Z,100036.41
2022-10-01T12:20:20.998Z,100023.25
2022-10-01T12:22:48.666Z,100016.53
2022-10-01T12:25:15.504Z,100018.50
2022-10-01T12:27:49.706Z,100015.06
2022-10-01T12:30:20.930Z,100007.16
2022-10-01T12:33:04.870Z,100021.22
2022-10-01T12:35:47.378Z,100027.31
2022-10-01T12:38:24.130Z,100028.22
2022-10-01T12:41:04.618Z,100030.09
2022-10-01T12:43:49.639Z,100025.22
2022-10-01T12:46:19.222Z,100021.25
2022-10-01T12:49:04.574Z,100008.03
2022-10-01T12:51:39.148Z,99997.22
2022-10-01T12:54:28.789Z,100006.94
2022-10-01T12:57:11.538Z,99999.88
2022-10-01T12:59:41.199Z,100000.56
2022-10-01T13:02:33.090Z,99991.13
2022-10-01T13:05:20.102Z,99989.63
2022-10-01T13:07:58.121Z,99993.53
2022-10-01T13:10:41.911Z,99995.31
2022-10-01T13:13:34.735Z,99989.13
2022-10-01T13:16:41.031Z,99976.63
2022-10-01T13:19:15.457Z,99973.03
2022-10-01T13:22:07.913Z,99968.94
2022-10-01T13:24:53.512Z,99969.28
2022-10-01T13:27:51.580Z,99971.91
2022-10-01T13:30:23.248Z,99977.75
2022-10-01T13:33:00.896Z,99968.72
2022-10-01T13:35:31.587Z,99967.63
2022-10-01T13:38:01.881Z,99962.63
2022-10-01T13:40:31.654Z,99963.75
2022-10-01T13:43:02.389Z,99966.84
2022-10-01T13:45:41.557Z,99971.63
2022-10-01T13:48:11.184Z,99968.78
2022-10-01T13:50:41.804Z,99965.88
2022-10-01T13:53:21.784Z,99967.06
2022-10-01T13:55:50.605Z,99957.09
2022-10-01T13:58:38.336Z,99946.13
2022-10-01T14:01:27.324Z,99952.44
2022-10-01T14:04:18.657Z,99952.88
2022-10-01T14:06:49.048Z,99935.25
2022-10-01T14:09:27.765Z,99935.47
2022-10-01T14:12:26.765Z,99934.03
2022-10-01T14:15:18.046Z,99944.28
2022-10-01T14:17:46.612Z,99944.63
2022-10-01T14:20:24.099Z,99944.94
2022-10-01T14:23:06.995Z,99949.97
2022-10-01T14:25:42.993Z,99948.00
2022-10-01T14:28:29.746Z,99947.16
2022-10-01T14:31:34.770Z,99952.66
2022-10-01T14:34:20.199Z,99938.88
2022-10-01T14:36:52.320Z,99942.66
2022-10-01T14:39:30.044Z,99940.78
2022-10-01T14:41:58.084Z,99937.72
2022-10-01T14:44:29.030Z,99940.06
2022-10-01T14:47:00.060Z,99944.19
2022-10-01T14:49:29.680Z,99941.34
2022-10-01T14:52:23.004Z,99940.47
2022-10-01T14:55:06.814Z,99938.66
2022-10-01T14:57:36.399Z,99939.94
2022-10-01T15:00:09.834Z,99941.34
2022-10-01T15:02:48.939Z,99950.03
2022-10-01T15:05:28.247Z,99952.94
2022-10-01T15:07:55.143Z,99960.38
2022-10-01T15:10:27.020Z,99964.50
2022-10-01T15:12:55.199Z,99974.84
2022-10-01T15:15:31.261Z,99977.97
2022-10-01T15:17:58.427Z,99976.31
2022-10-01T15:20:25.416Z,99985.66
2022-10-01T15:23:01.093Z,99984.81
2022-10-01T15:25:31.222Z,99991.06
2022-10-01T15:27:57.922Z,99987.94
2022-10-01T15:30:27.497Z,99993.31
2022-10-01T15:32:54.560Z,99994.38
2022-10-01T15:35:23.554Z,99987.16
2022-10-01T15:37:51.757Z,99990.47
2022-10-01T15:40:21.217Z,99977.50
2022-10-01T15:43:14.685Z,99975.44
2022-10-01T15:45:42.479Z,99976.69
2022-10-01T15:48:28.263Z,99986.41
2022-10-01T15:51:12.909Z,99983.47
2022-10-01T15:53:39.753Z,99985.34
2022-10-01T15:56:15.378Z,99989.09
2022-10-01T15:58:48.551Z,99985.97
2022-10-01T16:01:22.077Z,99994.84
2022-10-01T16:04:02.535Z,99992.16
2022-10-01T16:06:44.686Z,99991.13
2022-10-01T16:09:18.210Z,99997.31
2022-10-01T16:11:52.117Z,99999.81
2022-10-01T16:14:24.665Z,100003.50
2022-10-01T16:17:26.368Z,100007.84
2022-10-01T16:19:56.868Z,100009.28
2022-10-01T16:22:28.027Z,100005.81
2022-10-01T16:25:00.961Z,100011.75
2022-10-01T16:27:29.647Z,100012.19
2022-10-01T16:30:09.623Z,100011.38
2022-10-01T16:32:36.478Z,100010.53
2022-10-01T16:35:23.119Z,100011.53
2022-10-01T16:37:51.794Z,100015.25
2022-10-01T16:40:20.938Z,100017.53
2022-10-01T16:42:50.614Z,100021.66
2022-10-01T16:45:22.609Z,100016.06
2022-10-01T16:47:49.384Z,100023.47
2022-10-01T16:50:18.327Z,100022.44
2022-10-01T16:52:45.258Z,100023.25
2022-10-01T16:55:17.987Z,100030.88
2022-10-01T16:57:44.954Z,100029.44
2022-10-01T17:00:20.577Z,100032.72
2022-10-01T17:02:47.492Z,100032.09
2022-10-01T17:05:28.322Z,100041.13
2022-10-01T17:08:01.038Z,100041.56
2022-10-01T17:10:31.797Z,100040.53
2022-10-01T17:12:59.692Z,100047.53
2022-10-01T17:15:30.405Z,100038.22
2022-10-01T17:17:58.281Z,100040.31
2022-10-01T17:20:28.431Z,100042.94
2022-10-01T17:22:56.457Z,100047.91
2022-10-01T17:25:25.730Z,100036.81
2022-10-01T17:27:52.728Z,100031.47
2022-10-01T17:30:19.442Z,100026.13
2022-10-01T17:32:46.623Z,100034.78
2022-10-01T17:35:15.385Z,100040.16
2022-10-01T17:37:43.014Z,100047.75
2022-10-01T17:40:10.855Z,100049.38
2022-10-01T17:42:37.542Z,100053.69
2022-10-01T17:45:07.460Z,100053.06
2022-10-01T17:47:34.007Z,100050.38
2022-10-01T17:50:01.026Z,100054.88
2022-10-01T17:52:27.683Z,100057.72
2022-10-01T17:54:54.519Z,100065.56
2022-10-01T17:57:21.381Z,100071.13
2022-10-01T17:59:48.027Z,100077.91
2022-10-01T18:02:39.763Z,100086.69
2022-10-01T18:05:04.089Z,100091.84
2022-10-01T18:07:30.703Z,100090.00
2022-10-01T18:09:57.540Z,100087.13
2022-10-01T18:12:24.358Z,100093.09
2022-10-01T18:14:51.021Z,100102.94
2022-10-01T18:17:18.107Z,100100.69
2022-10-01T18:19:53.732Z,100107.88
2022-10-01T18:22:21.327Z,100117.13
2022-10-01T18:24:48.152Z,100125.34
2022-10-01T18:27:14.992Z,100131.72
2022-10-01T18:29:41.721Z,100130.91
2022-10-01T18:32:24.927Z,100135.00
2022-10-01T18:34:59.066Z,100140.47
2022-10-01T18:37:49.285Z,100152.72
2022-10-01T18:40:26.831Z,100163.63
2022-10-01T18:43:07.227Z,100182.31
2022-10-01T18:45:36.796Z,100185.44
2022-10-01T18:48:24.869Z,100186.50
2022-10-01T18:50:57.572Z,100188.53
2022-10-01T18:53:38.008Z,100177.88
2022-10-01T18:56:32.090Z,100171.75
2022-10-01T18:58:58.904Z,100183.13
2022-10-01T19:01:52.272Z,100169.19
2022-10-01T19:05:05.429Z,100164.84
2022-10-01T19:07:49.833Z,100138.91
2022-10-01T19:10:44.400Z,100137.03
2022-10-01T19:13:26.451Z,100135.19
2022-10-01T19:16:12.802Z,100146.91
2022-10-01T19:19:07.188Z,100167.09
2022-10-01T19:21:52.755Z,100168.53
2022-10-01T19:24:57.861Z,100177.00
2022-10-01T19:27:51.112Z,100185.41
2022-10-01T19:30:19.856Z,100176.22
2022-10-01T19:32:59.340Z,100190.13
2022-10-01T19:35:37.724Z,100201.75
2022-10-01T19:38:23.291Z,100207.69
2022-10-01T19:41:02.630Z,100213.78
2022-10-01T19:43:37.061Z,100215.00
2022-10-01T19:46:15.262Z,100212.34
2022-10-01T19:48:48.548Z,100208.16
2022-10-01T19:51:19.754Z,100216.19
2022-10-01T19:53:51.399Z,100219.50
2022-10-01T19:56:25.988Z,100223.59
2022-10-01T19:58:52.850Z,100227.47
2022-10-01T20:01:24.124Z,100240.59
2022-10-01T20:04:00.969Z,100236.25
2022-10-01T20:06:35.727Z,100239.78
2022-10-01T20:09:35.301Z,100243.47
2022-10-01T20:12:47.726Z,100242.78
2022-10-01T20:15:59.600Z,100231.03
2022-10-01T20:18:34.005Z,100219.31
2022-10-01T20:21:51.766Z,100224.41
2022-10-01T20:24:28.964Z,100236.78
2022-10-01T20:27:11.607Z,100233.41
2022-10-01T20:29:47.547Z,100241.63
2022-10-01T20:32:39.061Z,100247.66
2022-10-01T20:35:18.612Z,100263.44
2022-10-01T20:38:13.233Z,100264.94
2022-10-01T20:40:43.148Z,100261.66
2022-10-01T20:43:30.689Z,100265.72
2022-10-01T20:46:02.614Z,100268.19
2022-10-01T20:48:36.755Z,100277.41
2022-10-01T20:51:09.647Z,100276.03
2022-10-01T20:53:49.246Z,100295.47
2022-10-01T20:56:29.668Z,100291.06
2022-10-01T20:59:04.018Z,100290.34
2022-10-01T21:01:35.298Z,100289.22
2022-10-01T21:04:28.197Z,100290.88
2022-10-01T21:07:01.993Z,100290.59
2022-10-01T21:09:35.464Z,100297.31
2022-10-01T21:12:07.224Z,100312.91
2022-10-01T21:14:36.421Z,100306.09
2022-10-01T21:17:21.844Z,100313.63
2022-10-01T21:20:13.201Z,100305.53
2022-10-01T21:23:01.533Z,100310.03
2022-10-01T21:25:31.090Z,100314.00
2022-10-01T21:28:22.045Z,100308.13
2022-10-01T21:31:12.451Z,100325.94
2022-10-01T21:33:51.968Z,100328.41
2022-10-01T21:36:30.834Z,100331.69
2022-10-01T21:39:17.738Z,100340.50
2022-10-01T21:41:53.734Z,100343.97
2022-10-01T21:45:04.932Z,100338.97
2022-10-01T21:47:43.707Z,100325.38
2022-10-01T21:50:35.389Z,100328.91
2022-10-01T21:53:23.375Z,100334.91
2022-10-01T21:56:24.747Z,100344.75
2022-10-01T21:59:08.278Z,100342.88
2022-10-01T22:01:53.405Z,100352.72
2022-10-01T22:04:38.388Z,100346.34
2022-10-01T22:07:11.234Z,100345.91
2022-10-01T22:09:53.598Z,100346.81
2022-10-01T22:12:21.556Z,100344.63
2022-10-01T22:14:51.424Z,100344.63
2022-10-01T22:17:20.387Z,100345.63
2022-10-01T22:19:52.393Z,100345.41
2022-10-01T22:22:28.501Z,100342.31
2022-10-01T22:24:58.607Z,100341.81
2022-10-01T22:27:32.192Z,100346.88
2022-10-01T22:30:06.662Z,100354.47
2022-10-01T22:32:55.909Z,100353.06
2022-10-01T22:35:28.436Z,100363.78
2022-10-01T22:38:07.200Z,100378.44
2022-10-01T22:40:40.421Z,100370.06
2022-10-01T22:43:11.182Z,100372.56
2022-10-01T22:46:17.932Z,100391.34
2022-10-01T22:48:56.035Z,100405.09
2022-10-01T22:51:41.418Z,100411.53
2022-10-01T22:54:31.910Z,100400.69
2022-10-01T22:57:13.502Z,100400.94
2022-10-01T22:59:49.239Z,100395.06
2022-10-01T23:02:25.548Z,100406.41
2022-10-01T23:05:09.394Z,100415.13
2022-10-01T23:07:44.279Z,100429.53
2022-10-01T23:10:20.732Z,100424.38
2022-10-01T23:13:05.312Z,100423.06
2022-10-01T23:16:00.310Z,100422.56
2022-10-01T23:18:48.848Z,100420.44
2022-10-01T23:21:46.883Z,100421.09
2022-10-01T23:24:33.854Z,100423.88
2022-10-01T23:27:45.432Z,100436.75
2022-10-01T23:30:20.242Z,100448.09
2022-10-01T23:33:17.147Z,100457.44
2022-10-01T23:36:05.703Z,100455.13
2022-10-01T23:38:32.401Z,100456.31
2022-10-01T23:41:08.563Z,100457.47
2022-10-01T23:43:48.301Z,100471.66
2022-10-01T23:46:23.795Z,100474.66
2022-10-01T23:49:02.053Z,100473.31
2022-10-01T23:51:52.163Z,100480.94
2022-10-01T23:54:44.232Z,100476.47
2022-10-01T23:57:29.182Z,100486.50
